createdAt,value
2018-12-29T00:03:43.433Z,37.07
2018-12-29T00:08:47.709Z,35.77
2018-12-29T00:13:51.381Z,34.13
2018-12-29T00:18:55.074Z,33.67
2018-12-29T00:23:58.779Z,31.47
2018-12-29T00:29:02.742Z,33.57
2018-12-29T00:34:06.478Z,33.23
2018-12-29T00:39:10.133Z,34.47
2018-12-29T00:44:13.805Z,32.90
2018-12-29T00:49:17.492Z,34.93
2018-12-29T00:54:21.177Z,38.00
2018-12-29T00:59:24.846Z,34.57
2018-12-29T01:04:29.061Z,37.00
2018-12-29T01:09:33.317Z,31.77
2018-12-29T01:14:37.248Z,34.77
2018-12-29T01:19:40.965Z,35.53
2018-12-29T01:24:44.698Z,35.07
2018-12-29T01:29:48.374Z,34.87
2018-12-29T01:34:52.058Z,31.40
2018-12-29T01:39:55.734Z,28.80
2018-12-29T01:44:59.447Z,25.60
2018-12-29T01:50:03.186Z,24.00
2018-12-29T01:55:06.913Z,25.23
2018-12-29T02:00:10.577Z,24.90
2018-12-29T02:05:14.602Z,23.03
2018-12-29T02:10:18.285Z,24.17
2018-12-29T02:15:24.912Z,22.60
2018-12-29T02:20:28.032Z,19.57
2018-12-29T02:25:31.725Z,16.73
2018-12-29T02:30:35.437Z,16.00
2018-12-29T02:35:39.199Z,17.50
2018-12-29T02:40:42.912Z,17.67
2018-12-29T02:45:46.590Z,14.90
2018-12-29T02:50:50.558Z,16.50
2018-12-29T02:55:54.320Z,17.20
2018-12-29T03:00:58.207Z,16.67
2018-12-29T03:06:02.195Z,18.47
2018-12-29T03:11:05.858Z,14.93
2018-12-29T03:16:09.523Z,18.57
2018-12-29T03:21:13.251Z,15.37
2018-12-29T03:26:16.996Z,16.77
2018-12-29T03:31:20.869Z,15.87
2018-12-29T03:36:24.662Z,14.77
2018-12-29T03:41:28.351Z,16.43
2018-12-29T03:46:32.045Z,15.73
2018-12-29T03:51:35.749Z,17.43
2018-12-29T03:56:39.758Z,16.23
2018-12-29T04:01:43.420Z,17.70
2018-12-29T04:06:47.123Z,18.30
2018-12-29T04:11:50.810Z,22.17
2018-12-29T04:16:54.740Z,20.23
2018-12-29T04:21:58.424Z,22.23
2018-12-29T04:27:02.115Z,20.67
2018-12-29T04:32:05.805Z,24.80
2018-12-29T04:37:09.506Z,21.53
2018-12-29T04:42:13.227Z,21.93
2018-12-29T04:47:16.886Z,21.17
2018-12-29T04:52:20.820Z,21.47
2018-12-29T04:57:24.723Z,21.23
2018-12-29T05:02:28.420Z,19.13
2018-12-29T05:07:32.089Z,21.00
2018-12-29T05:12:35.828Z,21.23
2018-12-29T05:17:39.891Z,21.37
2018-12-29T05:22:43.572Z,21.73
2018-12-29T05:27:47.327Z,23.30
2018-12-29T05:32:51.412Z,21.90
2018-12-29T05:37:55.117Z,24.40
2018-12-29T05:42:58.812Z,22.57
2018-12-29T05:48:02.828Z,22.47
2018-12-29T05:53:06.557Z,19.47
2018-12-29T05:58:10.633Z,17.27
2018-12-29T06:03:14.412Z,19.03
2018-12-29T06:08:18.122Z,21.57
2018-12-29T06:13:22.118Z,24.47
2018-12-29T06:18:25.812Z,25.23
2018-12-29T06:23:29.480Z,26.17
2018-12-29T06:28:33.492Z,28.50
2018-12-29T06:33:37.171Z,25.77
2018-12-29T06:38:40.885Z,26.77
2018-12-29T06:43:44.634Z,26.73
2018-12-29T06:48:48.341Z,28.23
2018-12-29T06:53:52.615Z,27.40
2018-12-29T06:58:56.553Z,28.00
2018-12-29T07:04:00.250Z,23.47
2018-12-29T07:09:05.755Z,30.13
2018-12-29T07:14:09.447Z,27.53
2018-12-29T07:19:13.717Z,28.70
2018-12-29T07:24:17.770Z,26.80
2018-12-29T07:29:21.494Z,32.17
2018-12-29T07:34:25.464Z,30.43
2018-12-29T07:39:29.708Z,24.53
2018-12-29T07:44:33.444Z,29.00
2018-12-29T07:49:37.527Z,27.73
2018-12-29T07:54:41.720Z,24.87
2018-12-29T07:59:45.427Z,20.00
2018-12-29T08:04:49.132Z,21.87
2018-12-29T08:09:52.877Z,21.80
2018-12-29T08:14:56.580Z,19.80
2018-12-29T08:20:22.375Z,27.37
2018-12-29T08:25:26.718Z,22.33
2018-12-29T08:30:30.443Z,25.33
2018-12-29T08:35:34.153Z,27.53
2018-12-29T08:40:37.891Z,30.73
2018-12-29T08:45:41.593Z,29.30
2018-12-29T08:50:45.345Z,27.00
2018-12-29T08:55:49.134Z,27.50
2018-12-29T09:00:52.849Z,38.57
2018-12-29T09:05:56.565Z,30.07
2018-12-29T09:11:00.252Z,27.43
2018-12-29T09:16:03.931Z,30.63
2018-12-29T09:21:07.697Z,25.90
2018-12-29T09:26:11.493Z,24.80
2018-12-29T09:31:15.818Z,31.03
2018-12-29T09:36:21.320Z,30.90
2018-12-29T09:41:25.224Z,24.93
2018-12-29T09:46:28.910Z,24.83
2018-12-29T09:51:32.624Z,24.83
2018-12-29T09:56:36.352Z,22.50
2018-12-29T10:01:40.065Z,23.30
2018-12-29T10:06:43.757Z,21.50
2018-12-29T10:11:47.739Z,21.70
2018-12-29T10:16:51.514Z,21.37
2018-12-29T10:21:55.499Z,26.07
2018-12-29T10:26:59.244Z,19.70
2018-12-29T10:32:03.022Z,22.47
2018-12-29T10:37:06.790Z,25.60
2018-12-29T10:42:10.729Z,26.13
2018-12-29T10:47:14.707Z,26.60
2018-12-29T10:52:18.436Z,27.17
2018-12-29T10:57:22.234Z,31.07
2018-12-29T11:02:26.212Z,30.20
2018-12-29T11:07:29.909Z,27.97
2018-12-29T11:12:33.908Z,34.20
2018-12-29T11:17:42.154Z,30.43
2018-12-29T11:22:43.399Z,30.60
2018-12-29T11:27:47.425Z,31.87
2018-12-29T11:32:51.413Z,30.00
2018-12-29T11:37:55.096Z,32.70
2018-12-29T11:42:58.796Z,26.50
2018-12-29T11:48:02.471Z,27.73
2018-12-29T11:53:06.164Z,27.87
2018-12-29T11:58:09.847Z,29.57
2018-12-29T12:03:13.501Z,29.73
2018-12-29T12:08:17.215Z,26.03
2018-12-29T12:13:20.877Z,22.87
2018-12-29T12:18:24.899Z,25.90
2018-12-29T12:23:28.596Z,22.77
2018-12-29T12:28:32.267Z,18.70
2018-12-29T12:33:35.963Z,21.50
2018-12-29T12:38:39.629Z,17.57
2018-12-29T12:43:43.287Z,18.77
2018-12-29T12:48:47.649Z,18.63
2018-12-29T12:53:51.306Z,20.80
2018-12-29T12:58:55.073Z,18.30
2018-12-29T13:03:59.135Z,17.17
2018-12-29T13:09:03.589Z,17.67
2018-12-29T13:14:07.253Z,14.77
2018-12-29T13:19:10.925Z,14.37
2018-12-29T13:24:14.683Z,14.93
2018-12-29T13:29:19.383Z,12.00
2018-12-29T13:34:23.127Z,13.00
2018-12-29T13:39:26.913Z,11.60
2018-12-29T13:44:30.588Z,13.53
2018-12-29T13:49:34.255Z,12.07
2018-12-29T13:54:38.119Z,14.37
2018-12-29T13:59:42.370Z,14.97
2018-12-29T14:04:46.195Z,9.27
2018-12-29T14:09:50.005Z,13.20
2018-12-29T14:14:53.741Z,9.47
2018-12-29T14:19:57.843Z,9.97
2018-12-29T14:25:01.550Z,9.03
2018-12-29T14:30:06.015Z,9.80
2018-12-29T14:35:09.833Z,7.97
2018-12-29T14:40:13.665Z,8.63
2018-12-29T14:45:17.811Z,7.03
2018-12-29T14:50:21.537Z,7.63
2018-12-29T14:55:25.191Z,7.50
2018-12-29T15:00:29.015Z,11.40
2018-12-29T15:05:32.706Z,9.60
2018-12-29T15:10:36.730Z,10.90
2018-12-29T15:15:41.019Z,9.23
2018-12-29T15:20:45.060Z,8.20
2018-12-29T15:25:49.156Z,10.93
2018-12-29T15:30:52.914Z,10.50
2018-12-29T15:35:56.748Z,10.97
2018-12-29T15:41:00.835Z,12.27
2018-12-29T15:46:05.243Z,13.30
2018-12-29T15:51:09.278Z,12.07
2018-12-29T15:56:13.396Z,11.80
2018-12-29T16:01:17.217Z,12.13
2018-12-29T16:06:21.010Z,10.20
2018-12-29T16:11:26.430Z,9.23
2018-12-29T16:16:30.645Z,10.30
2018-12-29T16:21:34.791Z,10.30
2018-12-29T16:26:38.582Z,10.57
2018-12-29T16:31:42.769Z,8.60
2018-12-29T16:36:46.993Z,9.30
2018-12-29T16:41:51.026Z,9.23
2018-12-29T16:46:54.784Z,10.97
2018-12-29T16:51:58.527Z,8.70
2018-12-29T16:57:02.499Z,11.90
2018-12-29T17:02:06.454Z,11.13
2018-12-29T17:07:10.273Z,13.70
2018-12-29T17:12:13.951Z,10.17
2018-12-29T17:17:18.247Z,10.50
2018-12-29T17:22:22.017Z,9.83
2018-12-29T17:27:25.776Z,8.60
2018-12-29T17:32:29.878Z,10.90
2018-12-29T17:37:33.927Z,9.17
2018-12-29T17:42:38.022Z,8.10
2018-12-29T17:47:42.216Z,7.80
2018-12-29T17:52:45.913Z,6.87
2018-12-29T17:57:49.780Z,7.43
2018-12-29T18:02:53.628Z,8.90
2018-12-29T18:07:57.329Z,7.60
2018-12-29T18:13:01.492Z,8.20
2018-12-29T18:18:05.357Z,8.90
2018-12-29T18:23:09.703Z,8.03
2018-12-29T18:28:13.488Z,7.67
2018-12-29T18:33:17.308Z,7.13
2018-12-29T18:38:22.153Z,6.27
2018-12-29T18:43:25.985Z,6.57
2018-12-29T18:48:29.787Z,7.47
2018-12-29T18:53:33.588Z,8.87
2018-12-29T18:58:37.463Z,9.93
2018-12-29T19:03:41.269Z,8.40
2018-12-29T19:08:45.449Z,8.10
2018-12-29T19:13:49.250Z,10.80
2018-12-29T19:18:53.277Z,9.60
2018-12-29T19:23:57.894Z,8.27
2018-12-29T19:29:02.127Z,9.53
2018-12-29T19:34:06.132Z,7.97
2018-12-29T19:39:10.393Z,7.03
2018-12-29T19:44:14.566Z,6.93
2018-12-29T19:49:18.668Z,10.00
2018-12-29T19:54:30.380Z,7.77
2018-12-29T19:59:34.548Z,8.10
2018-12-29T20:04:38.367Z,9.47
2018-12-29T20:09:53.518Z,8.30
2018-12-29T20:14:57.223Z,7.20
2018-12-29T20:20:01.568Z,6.63
2018-12-29T20:25:06.080Z,7.40
2018-12-29T20:30:10.337Z,6.10
2018-12-29T20:35:14.163Z,6.87
2018-12-29T20:40:17.985Z,7.83
2018-12-29T20:45:22.470Z,6.20
2018-12-29T20:50:26.236Z,6.37
2018-12-29T20:55:30.208Z,6.13
2018-12-29T21:00:34.133Z,5.40
2018-12-29T21:05:37.956Z,7.53
2018-12-29T21:10:41.743Z,5.43
2018-12-29T21:15:48.773Z,5.37
2018-12-29T21:20:52.707Z,4.63
2018-12-29T21:25:57.039Z,5.40
2018-12-29T21:31:00.873Z,4.47
2018-12-29T21:36:04.847Z,5.23
2018-12-29T21:41:08.760Z,5.13
2018-12-29T21:46:12.494Z,4.23
2018-12-29T21:51:16.285Z,3.77
2018-12-29T21:56:20.146Z,4.60
2018-12-29T22:01:23.944Z,3.37
2018-12-29T22:06:27.796Z,2.83
2018-12-29T22:11:31.629Z,2.27
2018-12-29T22:16:35.440Z,2.50
2018-12-29T22:21:39.904Z,3.20
2018-12-29T22:26:43.652Z,4.13
2018-12-29T22:31:47.432Z,2.23
2018-12-29T22:36:51.491Z,2.70
2018-12-29T22:41:55.274Z,3.57
2018-12-29T22:46:59.353Z,3.67
2018-12-29T22:52:03.186Z,2.50
2018-12-29T22:57:06.965Z,2.33
2018-12-29T23:02:10.881Z,2.37
2018-12-29T23:07:14.673Z,1.67
2018-12-29T23:12:19.533Z,1.90
2018-12-29T23:17:23.254Z,1.50
2018-12-29T23:22:27.200Z,1.70
2018-12-29T23:27:31.268Z,1.33
2018-12-29T23:32:35.009Z,2.07
2018-12-29T23:37:38.821Z,3.13
2018-12-29T23:42:43.139Z,1.93
2018-12-29T23:47:46.808Z,2.07
2018-12-29T23:52:50.945Z,4.53
2018-12-29T23:57:55.006Z,1.27
